sensor_id;sensor_type;location;lat;lon;timestamp;P1;durP1;ratioP1;P2;durP2;ratioP2
31596;SDS011;18201;50.978;7.034;2022-09-21T01:21:59;11.32;;;5.78;;
31596;SDS011;18201;50.978;7.034;2022-09-21T01:23:13;8.13;;;6.63;;
31596;SDS011;18201;50.978;7.034;2022-09-21T02:44:27;8.80;;;5.53;;
31596;SDS011;18201;50.978;7.034;2022-09-21T02:45:34;8.15;;;5.30;;
31596;SDS011;18201;50.978;7.034;2022-09-21T02:46:41;11.65;;;5.22;;
31596;SDS011;18201;50.978;7.034;2022-09-21T02:47:46;8.93;;;4.57;;
31596;SDS011;18201;50.978;7.034;2022-09-21T02:48:53;9.93;;;5.30;;
31596;SDS011;18201;50.978;7.034;2022-09-21T02:49:58;7.68;;;5.05;;
31596;SDS011;18201;50.978;7.034;2022-09-21T02:51:06;8.48;;;5.05;;
31596;SDS011;18201;50.978;7.034;2022-09-21T02:52:11;8.45;;;5.30;;
31596;SDS011;18201;50.978;7.034;2022-09-21T02:53:17;6.38;;;4.55;;
31596;SDS011;18201;50.978;7.034;2022-09-21T02:54:23;8.18;;;5.47;;
31596;SDS011;18201;50.978;7.034;2022-09-21T02:55:27;10.15;;;5.60;;
31596;SDS011;18201;50.978;7.034;2022-09-21T02:56:29;6.43;;;5.00;;
31596;SDS011;18201;50.978;7.034;2022-09-21T02:57:32;8.10;;;5.60;;
31596;SDS011;18201;50.978;7.034;2022-09-21T02:58:33;8.00;;;5.22;;
31596;SDS011;18201;50.978;7.034;2022-09-21T02:59:40;9.02;;;5.85;;
31596;SDS011;18201;50.978;7.034;2022-09-21T03:00:41;6.90;;;5.10;;
31596;SDS011;18201;50.978;7.034;2022-09-21T03:01:43;7.93;;;4.63;;
31596;SDS011;18201;50.978;7.034;2022-09-21T03:02:44;6.10;;;5.13;;
31596;SDS011;18201;50.978;7.034;2022-09-21T03:03:46;8.25;;;5.05;;
31596;SDS011;18201;50.978;7.034;2022-09-21T03:04:47;8.93;;;5.07;;
31596;SDS011;18201;50.978;7.034;2022-09-21T03:05:51;10.50;;;5.70;;
31596;SDS011;18201;50.978;7.034;2022-09-21T03:06:53;12.52;;;6.50;;
31596;SDS011;18201;50.978;7.034;2022-09-21T03:07:56;10.30;;;5.60;;
31596;SDS011;18201;50.978;7.034;2022-09-21T03:08:58;10.30;;;6.03;;
31596;SDS011;18201;50.978;7.034;2022-09-21T03:09:59;15.05;;;7.10;;
31596;SDS011;18201;50.978;7.034;2022-09-21T03:11:01;12.88;;;7.10;;
31596;SDS011;18201;50.978;7.034;2022-09-21T03:12:03;8.10;;;6.22;;
31596;SDS011;18201;50.978;7.034;2022-09-21T03:13:04;10.82;;;6.30;;
31596;SDS011;18201;50.978;7.034;2022-09-21T03:14:06;18.55;;;6.28;;
31596;SDS011;18201;50.978;7.034;2022-09-21T03:15:09;13.07;;;6.63;;
31596;SDS011;18201;50.978;7.034;2022-09-21T03:16:11;9.77;;;6.72;;
31596;SDS011;18201;50.978;7.034;2022-09-21T03:17:12;8.80;;;5.38;;
31596;SDS011;18201;50.978;7.034;2022-09-21T03:18:14;13.73;;;6.18;;
31596;SDS011;18201;50.978;7.034;2022-09-21T03:19:15;10.65;;;5.65;;
31596;SDS011;18201;50.978;7.034;2022-09-21T03:20:17;6.07;;;5.22;;
31596;SDS011;18201;50.978;7.034;2022-09-21T03:21:18;6.68;;;4.85;;
31596;SDS011;18201;50.978;7.034;2022-09-21T03:22:21;11.95;;;5.85;;
31596;SDS011;18201;50.978;7.034;2022-09-21T03:23:22;11.93;;;6.30;;
31596;SDS011;18201;50.978;7.034;2022-09-21T03:24:24;13.68;;;5.63;;
31596;SDS011;18201;50.978;7.034;2022-09-21T03:25:44;8.93;;;6.20;;
31596;SDS011;18201;50.978;7.034;2022-09-21T03:26:46;11.40;;;5.05;;
31596;SDS011;18201;50.978;7.034;2022-09-21T03:27:47;8.02;;;5.70;;
31596;SDS011;18201;50.978;7.034;2022-09-21T03:28:52;7.65;;;5.05;;
31596;SDS011;18201;50.978;7.034;2022-09-21T03:29:53;8.50;;;5.40;;
31596;SDS011;18201;50.978;7.034;2022-09-21T03:30:57;5.70;;;5.10;;
31596;SDS011;18201;50.978;7.034;2022-09-21T03:31:58;6.88;;;5.07;;
31596;SDS011;18201;50.978;7.034;2022-09-21T03:32:59;9.02;;;4.93;;
31596;SDS011;18201;50.978;7.034;2022-09-21T03:34:00;7.93;;;5.00;;
31596;SDS011;18201;50.978;7.034;2022-09-21T03:35:03;8.55;;;5.50;;
31596;SDS011;18201;50.978;7.034;2022-09-21T03:36:04;8.02;;;5.60;;
31596;SDS011;18201;50.978;7.034;2022-09-21T03:37:07;10.48;;;5.05;;
31596;SDS011;18201;50.978;7.034;2022-09-21T03:38:10;10.13;;;5.35;;
31596;SDS011;18201;50.978;7.034;2022-09-21T03:39:11;6.35;;;4.40;;
31596;SDS011;18201;50.978;7.034;2022-09-21T03:40:13;5.35;;;4.15;;
31596;SDS011;18201;50.978;7.034;2022-09-21T03:41:15;6.43;;;5.20;;
31596;SDS011;18201;50.978;7.034;2022-09-21T03:42:19;9.38;;;5.03;;
31596;SDS011;18201;50.978;7.034;2022-09-21T03:43:21;6.90;;;5.10;;
31596;SDS011;18201;50.978;7.034;2022-09-21T03:44:24;8.07;;;5.30;;
31596;SDS011;18201;50.978;7.034;2022-09-21T03:45:26;8.23;;;5.05;;
31596;SDS011;18201;50.978;7.034;2022-09-21T03:46:29;8.55;;;5.47;;
31596;SDS011;18201;50.978;7.034;2022-09-21T03:47:34;8.05;;;5.05;;
31596;SDS011;18201;50.978;7.034;2022-09-21T03:48:37;7.47;;;4.80;;
31596;SDS011;18201;50.978;7.034;2022-09-21T03:49:39;7.75;;;4.55;;
31596;SDS011;18201;50.978;7.034;2022-09-21T03:50:41;7.00;;;5.10;;
31596;SDS011;18201;50.978;7.034;2022-09-21T03:51:42;6.30;;;4.63;;
31596;SDS011;18201;50.978;7.034;2022-09-21T03:52:44;9.07;;;5.28;;
31596;SDS011;18201;50.978;7.034;2022-09-21T03:53:45;6.80;;;4.75;;
31596;SDS011;18201;50.978;7.034;2022-09-21T04:00:16;12.27;;;4.88;;
31596;SDS011;18201;50.978;7.034;2022-09-21T04:01:17;7.78;;;5.05;;
31596;SDS011;18201;50.978;7.034;2022-09-21T04:02:21;14.43;;;5.40;;
31596;SDS011;18201;50.978;7.034;2022-09-21T04:03:21;6.07;;;5.05;;
31596;SDS011;18201;50.978;7.034;2022-09-21T04:04:23;7.70;;;5.55;;
31596;SDS011;18201;50.978;7.034;2022-09-21T04:05:24;10.73;;;6.45;;
31596;SDS011;18201;50.978;7.034;2022-09-21T04:06:26;9.07;;;5.40;;
31596;SDS011;18201;50.978;7.034;2022-09-21T04:07:29;12.57;;;5.00;;
31596;SDS011;18201;50.978;7.034;2022-09-21T04:08:32;10.15;;;5.63;;
31596;SDS011;18201;50.978;7.034;2022-09-21T04:09:33;7.03;;;4.80;;
31596;SDS011;18201;50.978;7.034;2022-09-21T04:10:35;8.02;;;5.18;;
31596;SDS011;18201;50.978;7.034;2022-09-21T04:11:40;10.95;;;5.55;;
31596;SDS011;18201;50.978;7.034;2022-09-21T04:12:42;7.93;;;5.93;;
31596;SDS011;18201;50.978;7.034;2022-09-21T04:20:04;6.20;;;5.07;;
31596;SDS011;18201;50.978;7.034;2022-09-21T04:21:07;9.85;;;5.97;;
31596;SDS011;18201;50.978;7.034;2022-09-21T04:22:09;9.95;;;5.18;;
31596;SDS011;18201;50.978;7.034;2022-09-21T04:23:11;7.22;;;6.00;;
31596;SDS011;18201;50.978;7.034;2022-09-21T04:24:13;6.97;;;5.30;;
31596;SDS011;18201;50.978;7.034;2022-09-21T04:25:14;8.88;;;5.55;;
31596;SDS011;18201;50.978;7.034;2022-09-21T04:26:19;7.90;;;5.25;;
31596;SDS011;18201;50.978;7.034;2022-09-21T04:27:22;8.27;;;6.07;;
31596;SDS011;18201;50.978;7.034;2022-09-21T04:28:24;11.82;;;5.88;;
31596;SDS011;18201;50.978;7.034;2022-09-21T04:29:25;11.27;;;6.07;;
31596;SDS011;18201;50.978;7.034;2022-09-21T04:30:26;7.80;;;5.40;;
31596;SDS011;18201;50.978;7.034;2022-09-21T04:31:28;5.72;;;4.60;;
31596;SDS011;18201;50.978;7.034;2022-09-21T04:41:45;5.50;;;4.68;;
31596;SDS011;18201;50.978;7.034;2022-09-21T04:42:49;7.88;;;6.18;;
31596;SDS011;18201;50.978;7.034;2022-09-21T04:43:51;13.25;;;5.75;;
31596;SDS011;18201;50.978;7.034;2022-09-21T04:44:52;8.45;;;5.75;;
31596;SDS011;18201;50.978;7.034;2022-09-21T04:45:54;7.70;;;5.22;;
31596;SDS011;18201;50.978;7.034;2022-09-21T04:46:55;6.15;;;5.40;;
31596;SDS011;18201;50.978;7.034;2022-09-21T04:47:57;9.05;;;5.88;;
31596;SDS011;18201;50.978;7.034;2022-09-21T04:48:58;12.52;;;6.15;;
31596;SDS011;18201;50.978;7.034;2022-09-21T04:49:59;9.90;;;5.93;;
31596;SDS011;18201;50.978;7.034;2022-09-21T04:51:00;6.10;;;5.53;;
31596;SDS011;18201;50.978;7.034;2022-09-21T04:52:02;13.20;;;6.28;;
31596;SDS011;18201;50.978;7.034;2022-09-21T04:53:03;5.80;;;5.15;;
31596;SDS011;18201;50.978;7.034;2022-09-21T04:54:06;9.57;;;6.47;;
31596;SDS011;18201;50.978;7.034;2022-09-21T04:55:07;6.43;;;5.65;;
31596;SDS011;18201;50.978;7.034;2022-09-21T04:56:10;11.38;;;6.63;;
31596;SDS011;18201;50.978;7.034;2022-09-21T04:57:15;11.05;;;6.40;;
31596;SDS011;18201;50.978;7.034;2022-09-21T04:58:17;7.20;;;5.72;;
31596;SDS011;18201;50.978;7.034;2022-09-21T04:59:17;12.65;;;6.40;;
31596;SDS011;18201;50.978;7.034;2022-09-21T05:00:19;10.50;;;6.15;;
31596;SDS011;18201;50.978;7.034;2022-09-21T05:01:20;10.00;;;6.85;;
31596;SDS011;18201;50.978;7.034;2022-09-21T05:02:22;11.80;;;6.47;;
31596;SDS011;18201;50.978;7.034;2022-09-21T05:03:23;16.42;;;7.43;;
31596;SDS011;18201;50.978;7.034;2022-09-21T05:22:07;16.05;;;7.20;;
31596;SDS011;18201;50.978;7.034;2022-09-21T05:23:08;9.63;;;6.75;;
31596;SDS011;18201;50.978;7.034;2022-09-21T05:24:10;10.77;;;7.10;;
31596;SDS011;18201;50.978;7.034;2022-09-21T05:25:11;6.88;;;6.13;;
31596;SDS011;18201;50.978;7.034;2022-09-21T05:35:40;8.90;;;7.38;;
31596;SDS011;18201;50.978;7.034;2022-09-21T05:44:22;11.15;;;7.90;;
31596;SDS011;18201;50.978;7.034;2022-09-21T05:47:36;14.65;;;9.07;;
31596;SDS011;18201;50.978;7.034;2022-09-21T05:48:40;13.55;;;8.25;;
31596;SDS011;18201;50.978;7.034;2022-09-21T05:49:47;12.35;;;9.70;;
31596;SDS011;18201;50.978;7.034;2022-09-21T05:50:55;13.35;;;7.97;;
31596;SDS011;18201;50.978;7.034;2022-09-21T05:52:05;14.43;;;9.18;;
31596;SDS011;18201;50.978;7.034;2022-09-21T06:00:10;11.18;;;7.95;;
31596;SDS011;18201;50.978;7.034;2022-09-21T06:03:25;15.30;;;8.60;;
31596;SDS011;18201;50.978;7.034;2022-09-21T06:04:28;16.02;;;8.35;;
31596;SDS011;18201;50.978;7.034;2022-09-21T06:05:30;11.30;;;8.18;;
31596;SDS011;18201;50.978;7.034;2022-09-21T06:11:34;12.43;;;8.45;;
31596;SDS011;18201;50.978;7.034;2022-09-21T06:12:36;11.60;;;8.65;;
31596;SDS011;18201;50.978;7.034;2022-09-21T06:13:37;14.80;;;8.60;;
31596;SDS011;18201;50.978;7.034;2022-09-21T06:14:40;11.27;;;8.35;;
31596;SDS011;18201;50.978;7.034;2022-09-21T06:15:42;13.68;;;8.07;;
31596;SDS011;18201;50.978;7.034;2022-09-21T06:16:44;15.80;;;8.95;;
31596;SDS011;18201;50.978;7.034;2022-09-21T06:17:45;13.77;;;8.63;;
31596;SDS011;18201;50.978;7.034;2022-09-21T06:18:47;11.70;;;8.90;;
31596;SDS011;18201;50.978;7.034;2022-09-21T06:19:48;16.60;;;9.90;;
31596;SDS011;18201;50.978;7.034;2022-09-21T06:20:50;14.25;;;9.15;;
31596;SDS011;18201;50.978;7.034;2022-09-21T06:21:52;10.65;;;8.35;;
31596;SDS011;18201;50.978;7.034;2022-09-21T06:23:00;14.23;;;9.20;;
31596;SDS011;18201;50.978;7.034;2022-09-21T06:24:02;18.00;;;9.57;;
31596;SDS011;18201;50.978;7.034;2022-09-21T06:25:04;15.05;;;9.43;;
31596;SDS011;18201;50.978;7.034;2022-09-21T06:26:07;17.48;;;10.00;;
31596;SDS011;18201;50.978;7.034;2022-09-21T06:27:09;13.73;;;9.77;;
31596;SDS011;18201;50.978;7.034;2022-09-21T06:28:10;13.68;;;9.65;;
31596;SDS011;18201;50.978;7.034;2022-09-21T06:29:13;11.90;;;8.35;;
31596;SDS011;18201;50.978;7.034;2022-09-21T06:30:14;10.15;;;8.93;;
31596;SDS011;18201;50.978;7.034;2022-09-21T06:31:17;13.02;;;9.02;;
31596;SDS011;18201;50.978;7.034;2022-09-21T06:32:19;12.07;;;8.93;;
31596;SDS011;18201;50.978;7.034;2022-09-21T06:33:20;13.75;;;9.02;;
31596;SDS011;18201;50.978;7.034;2022-09-21T06:34:22;16.67;;;10.10;;
31596;SDS011;18201;50.978;7.034;2022-09-21T06:37:41;16.02;;;9.68;;
31596;SDS011;18201;50.978;7.034;2022-09-21T06:43:44;13.98;;;9.80;;
31596;SDS011;18201;50.978;7.034;2022-09-21T06:44:45;16.75;;;11.02;;
31596;SDS011;18201;50.978;7.034;2022-09-21T06:45:53;17.10;;;11.07;;
31596;SDS011;18201;50.978;7.034;2022-09-21T06:46:58;18.07;;;10.17;;
31596;SDS011;18201;50.978;7.034;2022-09-21T06:47:58;11.77;;;9.82;;
31596;SDS011;18201;50.978;7.034;2022-09-21T06:49:00;18.42;;;10.20;;
31596;SDS011;18201;50.978;7.034;2022-09-21T06:50:02;14.57;;;10.40;;
31596;SDS011;18201;50.978;7.034;2022-09-21T06:51:04;12.70;;;10.20;;
31596;SDS011;18201;50.978;7.034;2022-09-21T06:52:06;17.73;;;10.68;;
31596;SDS011;18201;50.978;7.034;2022-09-21T06:53:08;14.02;;;10.35;;
31596;SDS011;18201;50.978;7.034;2022-09-21T06:54:09;16.88;;;11.20;;
31596;SDS011;18201;50.978;7.034;2022-09-21T06:55:11;15.93;;;10.75;;
31596;SDS011;18201;50.978;7.034;2022-09-21T06:56:13;13.82;;;10.02;;
31596;SDS011;18201;50.978;7.034;2022-09-21T06:57:14;13.43;;;10.73;;
31596;SDS011;18201;50.978;7.034;2022-09-21T06:58:15;15.60;;;10.88;;
31596;SDS011;18201;50.978;7.034;2022-09-21T06:59:16;23.02;;;11.40;;
31596;SDS011;18201;50.978;7.034;2022-09-21T07:00:19;18.60;;;11.05;;
31596;SDS011;18201;50.978;7.034;2022-09-21T07:01:20;15.07;;;10.43;;
31596;SDS011;18201;50.978;7.034;2022-09-21T07:02:23;12.77;;;10.07;;
31596;SDS011;18201;50.978;7.034;2022-09-21T07:03:24;21.83;;;10.60;;
31596;SDS011;18201;50.978;7.034;2022-09-21T07:04:26;13.95;;;10.48;;
31596;SDS011;18201;50.978;7.034;2022-09-21T07:05:28;16.75;;;10.05;;
31596;SDS011;18201;50.978;7.034;2022-09-21T07:06:30;13.38;;;10.13;;
31596;SDS011;18201;50.978;7.034;2022-09-21T07:07:31;17.00;;;11.55;;
31596;SDS011;18201;50.978;7.034;2022-09-21T07:08:33;13.90;;;10.25;;
31596;SDS011;18201;50.978;7.034;2022-09-21T07:09:34;19.83;;;11.38;;
31596;SDS011;18201;50.978;7.034;2022-09-21T07:10:36;18.35;;;11.48;;
31596;SDS011;18201;50.978;7.034;2022-09-21T07:11:37;14.57;;;11.13;;
31596;SDS011;18201;50.978;7.034;2022-09-21T07:12:40;14.10;;;11.95;;
31596;SDS011;18201;50.978;7.034;2022-09-21T07:13:42;16.40;;;11.88;;
31596;SDS011;18201;50.978;7.034;2022-09-21T07:14:44;16.05;;;11.40;;
31596;SDS011;18201;50.978;7.034;2022-09-21T07:15:46;17.95;;;11.40;;
31596;SDS011;18201;50.978;7.034;2022-09-21T07:16:47;15.75;;;10.35;;
31596;SDS011;18201;50.978;7.034;2022-09-21T07:17:50;13.98;;;10.35;;
31596;SDS011;18201;50.978;7.034;2022-09-21T07:18:51;17.52;;;13.05;;
31596;SDS011;18201;50.978;7.034;2022-09-21T07:19:53;13.63;;;11.52;;
31596;SDS011;18201;50.978;7.034;2022-09-21T07:20:54;16.50;;;12.32;;
31596;SDS011;18201;50.978;7.034;2022-09-21T07:21:56;18.27;;;11.65;;
31596;SDS011;18201;50.978;7.034;2022-09-21T07:22:58;15.00;;;11.48;;
31596;SDS011;18201;50.978;7.034;2022-09-21T07:23:59;12.70;;;11.40;;
31596;SDS011;18201;50.978;7.034;2022-09-21T07:25:02;13.07;;;11.43;;
31596;SDS011;18201;50.978;7.034;2022-09-21T07:26:04;16.05;;;11.05;;
31596;SDS011;18201;50.978;7.034;2022-09-21T07:27:07;16.70;;;11.77;;
31596;SDS011;18201;50.978;7.034;2022-09-21T07:28:08;16.10;;;11.48;;
31596;SDS011;18201;50.978;7.034;2022-09-21T07:29:11;17.70;;;12.68;;
31596;SDS011;18201;50.978;7.034;2022-09-21T07:30:12;19.05;;;12.70;;
31596;SDS011;18201;50.978;7.034;2022-09-21T07:31:14;15.82;;;11.50;;
31596;SDS011;18201;50.978;7.034;2022-09-21T07:32:17;17.75;;;12.23;;
31596;SDS011;18201;50.978;7.034;2022-09-21T07:33:20;18.65;;;12.32;;
31596;SDS011;18201;50.978;7.034;2022-09-21T07:34:22;16.33;;;11.52;;
31596;SDS011;18201;50.978;7.034;2022-09-21T07:35:23;13.88;;;11.73;;
31596;SDS011;18201;50.978;7.034;2022-09-21T07:36:24;14.68;;;11.80;;
31596;SDS011;18201;50.978;7.034;2022-09-21T07:37:26;15.27;;;12.35;;
31596;SDS011;18201;50.978;7.034;2022-09-21T07:38:27;18.77;;;13.05;;
31596;SDS011;18201;50.978;7.034;2022-09-21T07:39:30;21.05;;;13.70;;
31596;SDS011;18201;50.978;7.034;2022-09-21T07:40:31;16.65;;;12.50;;
31596;SDS011;18201;50.978;7.034;2022-09-21T07:41:34;13.98;;;11.38;;
31596;SDS011;18201;50.978;7.034;2022-09-21T07:42:35;23.50;;;16.23;;
31596;SDS011;18201;50.978;7.034;2022-09-21T07:43:37;24.38;;;16.95;;
31596;SDS011;18201;50.978;7.034;2022-09-21T07:44:39;21.50;;;15.32;;
31596;SDS011;18201;50.978;7.034;2022-09-21T07:45:40;16.52;;;13.38;;
31596;SDS011;18201;50.978;7.034;2022-09-21T07:46:42;17.70;;;14.63;;
31596;SDS011;18201;50.978;7.034;2022-09-21T07:47:45;13.98;;;12.48;;
31596;SDS011;18201;50.978;7.034;2022-09-21T07:48:51;24.17;;;14.48;;
31596;SDS011;18201;50.978;7.034;2022-09-21T07:49:52;21.67;;;14.95;;
31596;SDS011;18201;50.978;7.034;2022-09-21T07:50:59;18.00;;;13.38;;
31596;SDS011;18201;50.978;7.034;2022-09-21T07:52:01;14.30;;;12.77;;
31596;SDS011;18201;50.978;7.034;2022-09-21T07:53:02;14.43;;;12.90;;
31596;SDS011;18201;50.978;7.034;2022-09-21T07:54:03;15.23;;;12.18;;
31596;SDS011;18201;50.978;7.034;2022-09-21T07:55:05;15.13;;;12.45;;
31596;SDS011;18201;50.978;7.034;2022-09-21T07:56:08;22.65;;;12.80;;
31596;SDS011;18201;50.978;7.034;2022-09-21T07:57:12;18.40;;;12.95;;
31596;SDS011;18201;50.978;7.034;2022-09-21T07:58:31;17.42;;;12.48;;
31596;SDS011;18201;50.978;7.034;2022-09-21T07:59:50;18.33;;;12.50;;
31596;SDS011;18201;50.978;7.034;2022-09-21T08:00:53;15.68;;;12.20;;
31596;SDS011;18201;50.978;7.034;2022-09-21T08:01:54;16.25;;;11.52;;
31596;SDS011;18201;50.978;7.034;2022-09-21T08:02:56;16.13;;;12.45;;
31596;SDS011;18201;50.978;7.034;2022-09-21T08:04:00;15.35;;;11.48;;
31596;SDS011;18201;50.978;7.034;2022-09-21T08:05:03;15.15;;;11.30;;
31596;SDS011;18201;50.978;7.034;2022-09-21T08:06:04;13.15;;;11.00;;
31596;SDS011;18201;50.978;7.034;2022-09-21T08:07:06;19.20;;;12.02;;
31596;SDS011;18201;50.978;7.034;2022-09-21T08:08:08;13.00;;;11.00;;
31596;SDS011;18201;50.978;7.034;2022-09-21T08:09:09;20.75;;;10.93;;
31596;SDS011;18201;50.978;7.034;2022-09-21T08:10:11;13.45;;;10.88;;
31596;SDS011;18201;50.978;7.034;2022-09-21T08:11:12;15.45;;;10.63;;
31596;SDS011;18201;50.978;7.034;2022-09-21T08:12:15;18.10;;;11.60;;
31596;SDS011;18201;50.978;7.034;2022-09-21T08:13:19;21.40;;;11.30;;
31596;SDS011;18201;50.978;7.034;2022-09-21T08:14:21;13.90;;;10.30;;
31596;SDS011;18201;50.978;7.034;2022-09-21T08:15:23;12.95;;;9.40;;
31596;SDS011;18201;50.978;7.034;2022-09-21T08:16:25;12.57;;;10.80;;
31596;SDS011;18201;50.978;7.034;2022-09-21T08:17:28;14.75;;;9.85;;
31596;SDS011;18201;50.978;7.034;2022-09-21T08:18:29;11.02;;;9.93;;
31596;SDS011;18201;50.978;7.034;2022-09-21T08:19:32;15.82;;;9.98;;
31596;SDS011;18201;50.978;7.034;2022-09-21T08:20:35;12.60;;;10.55;;
31596;SDS011;18201;50.978;7.034;2022-09-21T08:21:37;16.17;;;11.20;;
31596;SDS011;18201;50.978;7.034;2022-09-21T08:22:38;22.55;;;17.35;;
31596;SDS011;18201;50.978;7.034;2022-09-21T08:23:39;17.52;;;12.55;;
31596;SDS011;18201;50.978;7.034;2022-09-21T08:24:41;18.50;;;11.43;;
31596;SDS011;18201;50.978;7.034;2022-09-21T08:25:43;12.95;;;10.27;;
31596;SDS011;18201;50.978;7.034;2022-09-21T08:26:44;16.27;;;10.63;;
31596;SDS011;18201;50.978;7.034;2022-09-21T08:27:47;15.23;;;10.75;;
31596;SDS011;18201;50.978;7.034;2022-09-21T08:28:50;10.75;;;8.68;;
31596;SDS011;18201;50.978;7.034;2022-09-21T08:29:52;11.57;;;9.02;;
31596;SDS011;18201;50.978;7.034;2022-09-21T08:30:57;13.35;;;9.73;;
31596;SDS011;18201;50.978;7.034;2022-09-21T08:31:58;12.15;;;8.93;;
31596;SDS011;18201;50.978;7.034;2022-09-21T08:33:01;10.20;;;9.02;;
31596;SDS011;18201;50.978;7.034;2022-09-21T08:34:02;15.70;;;9.13;;
31596;SDS011;18201;50.978;7.034;2022-09-21T08:35:06;13.77;;;8.80;;
31596;SDS011;18201;50.978;7.034;2022-09-21T08:36:09;11.23;;;8.75;;
31596;SDS011;18201;50.978;7.034;2022-09-21T08:40:16;10.23;;;7.70;;
31596;SDS011;18201;50.978;7.034;2022-09-21T08:41:19;10.32;;;8.00;;
31596;SDS011;18201;50.978;7.034;2022-09-21T08:42:30;10.27;;;7.13;;
31596;SDS011;18201;50.978;7.034;2022-09-21T08:43:39;11.20;;;7.28;;
31596;SDS011;18201;50.978;7.034;2022-09-21T08:44:44;8.45;;;7.60;;
31596;SDS011;18201;50.978;7.034;2022-09-21T08:45:51;8.65;;;6.82;;
31596;SDS011;18201;50.978;7.034;2022-09-21T08:46:57;9.65;;;6.72;;
31596;SDS011;18201;50.978;7.034;2022-09-21T08:48:04;6.85;;;4.70;;
31596;SDS011;18201;50.978;7.034;2022-09-21T08:49:11;8.98;;;6.35;;
31596;SDS011;18201;50.978;7.034;2022-09-21T08:50:25;9.07;;;6.00;;
31596;SDS011;18201;50.978;7.034;2022-09-21T08:51:35;9.50;;;6.22;;
31596;SDS011;18201;50.978;7.034;2022-09-21T08:52:42;7.10;;;6.45;;
31596;SDS011;18201;50.978;7.034;2022-09-21T08:53:44;9.10;;;5.38;;
31596;SDS011;18201;50.978;7.034;2022-09-21T08:54:50;7.53;;;5.68;;
31596;SDS011;18201;50.978;7.034;2022-09-21T08:57:28;7.00;;;5.30;;
31596;SDS011;18201;50.978;7.034;2022-09-21T08:58:31;5.97;;;5.15;;
31596;SDS011;18201;50.978;7.034;2022-09-21T09:00:44;11.90;;;5.18;;
31596;SDS011;18201;50.978;7.034;2022-09-21T09:01:49;6.68;;;4.60;;
31596;SDS011;18201;50.978;7.034;2022-09-21T09:03:06;5.97;;;4.93;;
31596;SDS011;18201;50.978;7.034;2022-09-21T09:04:22;7.20;;;4.40;;
31596;SDS011;18201;50.978;7.034;2022-09-21T09:05:35;9.52;;;5.65;;
31596;SDS011;18201;50.978;7.034;2022-09-21T09:06:48;11.35;;;5.00;;
31596;SDS011;18201;50.978;7.034;2022-09-21T09:08:01;9.43;;;5.63;;
31596;SDS011;18201;50.978;7.034;2022-09-21T09:09:38;7.25;;;4.90;;
31596;SDS011;18201;50.978;7.034;2022-09-21T09:10:53;8.30;;;5.22;;
31596;SDS011;18201;50.978;7.034;2022-09-21T09:12:08;9.73;;;5.03;;
31596;SDS011;18201;50.978;7.034;2022-09-21T09:13:34;7.10;;;4.70;;
31596;SDS011;18201;50.978;7.034;2022-09-21T09:14:48;9.20;;;5.00;;
31596;SDS011;18201;50.978;7.034;2022-09-21T09:16:13;9.20;;;4.43;;
31596;SDS011;18201;50.978;7.034;2022-09-21T09:17:24;8.43;;;4.68;;
31596;SDS011;18201;50.978;7.034;2022-09-21T09:18:35;7.28;;;5.05;;
31596;SDS011;18201;50.978;7.034;2022-09-21T09:19:44;10.10;;;5.43;;
31596;SDS011;18201;50.978;7.034;2022-09-21T09:20:54;7.35;;;4.72;;
31596;SDS011;18201;50.978;7.034;2022-09-21T09:22:00;11.98;;;5.10;;
31596;SDS011;18201;50.978;7.034;2022-09-21T09:23:05;7.60;;;4.53;;
31596;SDS011;18201;50.978;7.034;2022-09-21T09:24:13;6.10;;;4.38;;
31596;SDS011;18201;50.978;7.034;2022-09-21T09:25:18;7.40;;;4.43;;
31596;SDS011;18201;50.978;7.034;2022-09-21T09:26:24;4.28;;;3.88;;
31596;SDS011;18201;50.978;7.034;2022-09-21T09:27:29;6.10;;;4.50;;
31596;SDS011;18201;50.978;7.034;2022-09-21T09:28:37;8.13;;;4.30;;
31596;SDS011;18201;50.978;7.034;2022-09-21T09:29:44;7.00;;;3.97;;
31596;SDS011;18201;50.978;7.034;2022-09-21T09:30:55;7.63;;;4.10;;
31596;SDS011;18201;50.978;7.034;2022-09-21T09:32:00;5.93;;;4.22;;
31596;SDS011;18201;50.978;7.034;2022-09-21T09:33:05;9.57;;;4.20;;
31596;SDS011;18201;50.978;7.034;2022-09-21T09:34:11;9.52;;;4.40;;
31596;SDS011;18201;50.978;7.034;2022-09-21T09:35:20;6.32;;;4.57;;
31596;SDS011;18201;50.978;7.034;2022-09-21T09:36:26;10.20;;;4.47;;
31596;SDS011;18201;50.978;7.034;2022-09-21T09:37:32;7.40;;;3.83;;
31596;SDS011;18201;50.978;7.034;2022-09-21T09:38:38;7.68;;;3.75;;
31596;SDS011;18201;50.978;7.034;2022-09-21T09:39:50;7.90;;;3.60;;
31596;SDS011;18201;50.978;7.034;2022-09-21T09:41:01;4.82;;;3.30;;
31596;SDS011;18201;50.978;7.034;2022-09-21T09:42:35;7.28;;;4.15;;
31596;SDS011;18201;50.978;7.034;2022-09-21T09:43:44;7.60;;;3.90;;
31596;SDS011;18201;50.978;7.034;2022-09-21T09:45:11;11.38;;;4.47;;
31596;SDS011;18201;50.978;7.034;2022-09-21T09:46:24;4.70;;;3.80;;
31596;SDS011;18201;50.978;7.034;2022-09-21T09:47:35;8.27;;;4.13;;
31596;SDS011;18201;50.978;7.034;2022-09-21T09:51:28;6.38;;;3.30;;
31596;SDS011;18201;50.978;7.034;2022-09-21T09:52:31;6.07;;;3.83;;
31596;SDS011;18201;50.978;7.034;2022-09-21T09:53:32;4.93;;;3.72;;
31596;SDS011;18201;50.978;7.034;2022-09-21T09:54:35;6.40;;;3.83;;
31596;SDS011;18201;50.978;7.034;2022-09-21T09:55:36;10.23;;;3.30;;
31596;SDS011;18201;50.978;7.034;2022-09-21T09:56:40;4.88;;;2.70;;
31596;SDS011;18201;50.978;7.034;2022-09-21T09:57:42;6.63;;;2.78;;
31596;SDS011;18201;50.978;7.034;2022-09-21T09:58:44;8.23;;;3.33;;
31596;SDS011;18201;50.978;7.034;2022-09-21T09:59:53;5.28;;;2.35;;
31596;SDS011;18201;50.978;7.034;2022-09-21T10:00:57;7.55;;;2.30;;
31596;SDS011;18201;50.978;7.034;2022-09-21T10:02:02;5.57;;;2.40;;
31596;SDS011;18201;50.978;7.034;2022-09-21T10:03:08;3.97;;;2.53;;
31596;SDS011;18201;50.978;7.034;2022-09-21T10:04:19;6.18;;;2.63;;
31596;SDS011;18201;50.978;7.034;2022-09-21T10:05:22;5.60;;;4.15;;
31596;SDS011;18201;50.978;7.034;2022-09-21T10:06:30;6.00;;;5.13;;
31596;SDS011;18201;50.978;7.034;2022-09-21T10:07:33;8.77;;;5.05;;
31596;SDS011;18201;50.978;7.034;2022-09-21T10:08:40;4.32;;;3.30;;
31596;SDS011;18201;50.978;7.034;2022-09-21T10:09:42;5.60;;;2.95;;
31596;SDS011;18201;50.978;7.034;2022-09-21T10:10:47;5.20;;;3.15;;
31596;SDS011;18201;50.978;7.034;2022-09-21T10:11:48;5.45;;;3.38;;
31596;SDS011;18201;50.978;7.034;2022-09-21T10:12:52;4.25;;;2.88;;
31596;SDS011;18201;50.978;7.034;2022-09-21T10:14:06;3.75;;;2.95;;
31596;SDS011;18201;50.978;7.034;2022-09-21T10:15:10;4.22;;;2.90;;
31596;SDS011;18201;50.978;7.034;2022-09-21T10:16:13;6.15;;;3.63;;
31596;SDS011;18201;50.978;7.034;2022-09-21T10:17:22;3.70;;;2.30;;
31596;SDS011;18201;50.978;7.034;2022-09-21T10:18:25;3.42;;;2.53;;
31596;SDS011;18201;50.978;7.034;2022-09-21T10:19:34;3.95;;;2.67;;
31596;SDS011;18201;50.978;7.034;2022-09-21T10:20:37;10.77;;;5.75;;
31596;SDS011;18201;50.978;7.034;2022-09-21T10:21:40;19.02;;;8.85;;
31596;SDS011;18201;50.978;7.034;2022-09-21T10:22:46;8.23;;;4.03;;
31596;SDS011;18201;50.978;7.034;2022-09-21T10:23:53;5.97;;;3.90;;
31596;SDS011;18201;50.978;7.034;2022-09-21T10:24:58;5.72;;;3.13;;
31596;SDS011;18201;50.978;7.034;2022-09-21T10:26:06;6.63;;;3.33;;
31596;SDS011;18201;50.978;7.034;2022-09-21T10:27:10;10.18;;;3.25;;
31596;SDS011;18201;50.978;7.034;2022-09-21T10:28:14;7.80;;;2.83;;
31596;SDS011;18201;50.978;7.034;2022-09-21T10:29:32;7.45;;;2.40;;
31596;SDS011;18201;50.978;7.034;2022-09-21T10:30:42;6.50;;;2.50;;